createdAt,value
2023-04-08T00:00:51.614Z,8.37
2023-04-08T00:03:21.641Z,8.37
2023-04-08T00:05:49.620Z,8.36
2023-04-08T00:08:17.386Z,8.34
2023-04-08T00:10:45.418Z,8.33
2023-04-08T00:13:13.333Z,8.23
2023-04-08T00:15:41.942Z,8.18
2023-04-08T00:18:09.827Z,8.12
2023-04-08T00:20:39.007Z,8.08
2023-04-08T00:23:06.858Z,8.02
2023-04-08T00:25:34.639Z,8.07
2023-04-08T00:28:02.531Z,8.12
2023-04-08T00:30:31.393Z,8.12
2023-04-08T00:32:59.720Z,8.14
2023-04-08T00:35:27.737Z,8.13
2023-04-08T00:37:57.009Z,8.05
2023-04-08T00:40:24.814Z,8.02
2023-04-08T00:42:52.601Z,8.01
2023-04-08T00:45:20.541Z,7.88
2023-04-08T00:47:52.599Z,7.93
2023-04-08T00:50:21.168Z,7.83
2023-04-08T00:52:48.930Z,7.87
2023-04-08T00:55:18.391Z,7.83
2023-04-08T00:57:47.167Z,7.79
2023-04-08T01:00:16.335Z,7.77
2023-04-08T01:02:48.500Z,7.74
2023-04-08T01:05:25.992Z,7.71
2023-04-08T01:07:54.054Z,7.78
2023-04-08T01:10:27.667Z,7.79
2023-04-08T01:12:57.455Z,7.80
2023-04-08T01:15:27.255Z,7.83
2023-04-08T01:17:56.588Z,7.83
2023-04-08T01:20:26.334Z,7.80
2023-04-08T01:23:07.383Z,7.76
2023-04-08T01:25:37.986Z,7.61
2023-04-08T01:28:09.853Z,7.62
2023-04-08T01:30:39.581Z,7.60
2023-04-08T01:33:08.455Z,7.63
2023-04-08T01:35:37.258Z,7.63
2023-04-08T01:38:06.842Z,7.59
2023-04-08T01:40:36.247Z,7.49
2023-04-08T01:43:06.619Z,7.44
2023-04-08T01:45:35.791Z,7.43
2023-04-08T01:48:04.689Z,7.40
2023-04-08T01:50:33.348Z,7.44
2023-04-08T01:53:03.237Z,7.45
2023-04-08T01:55:32.501Z,7.47
2023-04-08T01:58:02.441Z,7.49
2023-04-08T02:00:32.202Z,7.41
2023-04-08T02:03:02.308Z,7.31
2023-04-08T02:05:30.441Z,7.32
2023-04-08T02:07:58.187Z,7.37
2023-04-08T02:10:26.137Z,7.32
2023-04-08T02:12:53.936Z,7.26
2023-04-08T02:15:21.958Z,7.22
2023-04-08T02:17:56.117Z,7.20
2023-04-08T02:20:32.403Z,7.12
2023-04-08T02:23:07.134Z,7.21
2023-04-08T02:25:38.689Z,7.28
2023-04-08T02:28:10.618Z,7.27
2023-04-08T02:30:42.381Z,7.23
2023-04-08T02:33:11.228Z,7.23
2023-04-08T02:35:42.449Z,7.19
2023-04-08T02:38:10.287Z,7.20
2023-04-08T02:40:38.512Z,7.19
2023-04-08T02:43:06.390Z,7.13
2023-04-08T02:45:39.070Z,7.10
2023-04-08T02:48:07.313Z,6.98
2023-04-08T02:50:35.524Z,6.99
2023-04-08T02:53:05.466Z,7.02
2023-04-08T02:55:34.477Z,6.97
2023-04-08T02:58:02.264Z,6.96
2023-04-08T03:00:30.051Z,6.96
2023-04-08T03:02:58.047Z,6.98
2023-04-08T03:05:27.244Z,7.01
2023-04-08T03:07:55.049Z,6.95
2023-04-08T03:10:24.236Z,6.95
2023-04-08T03:12:52.121Z,6.97
2023-04-08T03:15:20.459Z,7.00
2023-04-08T03:17:48.239Z,6.96
2023-04-08T03:20:16.186Z,6.95
2023-04-08T03:22:43.948Z,7.00
2023-04-08T03:25:11.888Z,6.92
2023-04-08T03:27:41.006Z,6.86
2023-04-08T03:30:09.763Z,6.84
2023-04-08T03:32:37.725Z,6.83
2023-04-08T03:35:06.455Z,6.80
2023-04-08T03:37:34.267Z,6.75
2023-04-08T03:40:02.035Z,6.72
2023-04-08T03:42:29.783Z,6.72
2023-04-08T03:44:59.039Z,6.67
2023-04-08T03:47:27.298Z,6.70
2023-04-08T03:49:55.485Z,6.70
2023-04-08T03:52:24.322Z,6.68
2023-04-08T03:54:52.069Z,6.63
2023-04-08T03:57:19.820Z,6.62
2023-04-08T03:59:47.569Z,6.61
2023-04-08T04:02:16.745Z,6.59
2023-04-08T04:04:44.605Z,6.48
2023-04-08T04:07:12.351Z,6.47
2023-04-08T04:09:40.106Z,6.41
2023-04-08T04:12:07.873Z,6.43
2023-04-08T04:14:35.893Z,6.48
2023-04-08T04:17:03.699Z,6.45
2023-04-08T04:19:33.167Z,6.33
2023-04-08T04:22:00.950Z,6.26
2023-04-08T04:24:28.751Z,6.29
2023-04-08T04:26:56.558Z,6.27
2023-04-08T04:29:24.405Z,6.20
2023-04-08T04:31:52.205Z,6.27
2023-04-08T04:34:19.984Z,6.21
2023-04-08T04:36:49.069Z,6.16
2023-04-08T04:39:16.830Z,6.07
2023-04-08T04:41:44.763Z,6.12
2023-04-08T04:44:12.537Z,6.11
2023-04-08T04:46:40.486Z,5.99
2023-04-08T04:49:08.354Z,6.04
2023-04-08T04:51:36.110Z,5.98
2023-04-08T04:54:05.424Z,5.98
2023-04-08T04:56:33.240Z,6.01
2023-04-08T04:59:01.030Z,5.88
2023-04-08T05:01:29.136Z,5.91
2023-04-08T05:03:57.232Z,5.83
2023-04-08T05:06:26.437Z,5.85
2023-04-08T05:08:54.388Z,5.87
2023-04-08T05:11:23.510Z,5.85
2023-04-08T05:13:51.404Z,5.84
2023-04-08T05:16:19.310Z,5.81
2023-04-08T05:18:47.078Z,5.73
2023-04-08T05:21:14.880Z,5.67
2023-04-08T05:23:42.636Z,5.72
2023-04-08T05:26:10.516Z,5.62
2023-04-08T05:28:39.600Z,5.54
2023-04-08T05:31:07.489Z,5.62
2023-04-08T05:33:35.260Z,5.58
2023-04-08T05:36:03.189Z,5.61
2023-04-08T05:38:30.991Z,5.58
2023-04-08T05:40:58.731Z,5.57
2023-04-08T05:43:26.612Z,5.55
2023-04-08T05:45:56.106Z,5.51
2023-04-08T05:48:23.896Z,5.49
2023-04-08T05:50:51.671Z,5.55
2023-04-08T05:53:19.506Z,5.56
2023-04-08T05:55:47.276Z,5.55
2023-04-08T05:58:15.078Z,5.50
2023-04-08T06:00:42.875Z,5.47
2023-04-08T06:03:12.314Z,5.51
2023-04-08T06:05:40.550Z,5.58
2023-04-08T06:08:10.831Z,5.58
2023-04-08T06:10:39.022Z,5.60
2023-04-08T06:13:06.800Z,5.65
2023-04-08T06:15:34.585Z,5.64
2023-04-08T06:18:02.457Z,5.62
2023-04-08T06:20:31.663Z,5.67
2023-04-08T06:22:59.443Z,5.65
2023-04-08T06:25:27.337Z,5.69
2023-04-08T06:27:55.258Z,5.77
2023-04-08T06:30:23.315Z,5.86
2023-04-08T06:32:51.110Z,5.90
2023-04-08T06:35:19.341Z,6.04
2023-04-08T06:37:48.489Z,6.15
2023-04-08T06:40:16.355Z,6.18
2023-04-08T06:42:44.505Z,6.32
2023-04-08T06:45:35.500Z,6.89
2023-04-08T06:48:03.476Z,7.29
2023-04-08T06:50:31.565Z,7.63
2023-04-08T06:53:00.734Z,7.90
2023-04-08T06:55:28.515Z,8.11
2023-04-08T06:57:56.277Z,7.99
2023-04-08T07:00:24.099Z,8.18
2023-04-08T07:02:52.190Z,8.49
2023-04-08T07:05:20.085Z,8.63
2023-04-08T07:07:47.836Z,8.71
2023-04-08T07:10:17.300Z,8.83
2023-04-08T07:12:45.403Z,8.87
2023-04-08T07:15:13.203Z,9.00
2023-04-08T07:17:40.981Z,9.23
2023-04-08T07:20:09.641Z,9.35
2023-04-08T07:22:37.478Z,9.51
2023-04-08T07:25:05.645Z,9.71
2023-04-08T07:27:36.297Z,9.82
2023-04-08T07:30:04.986Z,9.91
2023-04-08T07:32:33.933Z,10.02
2023-04-08T07:35:02.064Z,10.08
2023-04-08T07:37:29.923Z,10.19
2023-04-08T07:39:57.773Z,10.26
2023-04-08T07:42:25.949Z,10.35
2023-04-08T07:44:55.389Z,10.29
2023-04-08T07:47:23.272Z,10.47
2023-04-08T07:49:51.295Z,10.52
2023-04-08T07:52:19.192Z,10.71
2023-04-08T07:54:47.121Z,10.60
2023-04-08T07:57:14.970Z,10.77
2023-04-08T07:59:43.115Z,10.98
2023-04-08T08:02:12.443Z,11.10
2023-04-08T08:04:40.857Z,10.92
2023-04-08T08:07:08.985Z,11.04
2023-04-08T08:09:36.828Z,11.23
2023-04-08T08:12:04.779Z,11.58
2023-04-08T08:14:32.618Z,11.71
2023-04-08T08:17:01.493Z,11.78
2023-04-08T08:19:30.694Z,11.78
2023-04-08T08:21:59.081Z,11.88
2023-04-08T08:24:27.454Z,12.08
2023-04-08T08:26:55.541Z,12.16
2023-04-08T08:29:23.296Z,12.40
2023-04-08T08:31:51.145Z,12.64
2023-04-08T08:34:18.979Z,12.91
2023-04-08T08:36:48.103Z,13.16
2023-04-08T08:39:15.861Z,13.35
2023-04-08T08:41:43.664Z,13.54
2023-04-08T08:44:12.093Z,13.48
2023-04-08T08:46:45.317Z,13.62
2023-04-08T08:49:13.520Z,13.61
2023-04-08T08:51:41.778Z,13.60
2023-04-08T08:54:10.899Z,13.60
2023-04-08T08:56:38.756Z,13.75
2023-04-08T08:59:06.607Z,13.94
2023-04-08T09:01:35.818Z,13.92
2023-04-08T09:04:16.955Z,13.91
2023-04-08T09:06:46.606Z,14.25
2023-04-08T09:09:16.011Z,14.40
2023-04-08T09:11:45.089Z,14.42
2023-04-08T09:14:20.617Z,14.69
2023-04-08T09:16:48.850Z,14.85
2023-04-08T09:19:16.720Z,14.97
2023-04-08T09:21:44.563Z,15.13
2023-04-08T09:24:30.291Z,15.31
2023-04-08T09:26:58.073Z,15.53
2023-04-08T09:29:29.919Z,15.85
2023-04-08T09:32:01.916Z,16.10
2023-04-08T09:34:32.379Z,16.44
2023-04-08T09:37:00.190Z,16.67
2023-04-08T09:39:27.927Z,16.83
2023-04-08T09:42:01.105Z,17.05
2023-04-08T09:44:31.158Z,17.01
2023-04-08T09:47:06.804Z,17.06
2023-04-08T09:49:39.311Z,17.16
2023-04-08T09:52:10.928Z,17.24
2023-04-08T09:54:45.456Z,17.56
2023-04-08T09:57:22.902Z,17.62
2023-04-08T09:59:57.166Z,17.89
2023-04-08T10:02:31.607Z,18.16
2023-04-08T10:05:01.291Z,18.25
2023-04-08T10:07:29.141Z,18.14
2023-04-08T10:09:58.757Z,18.10
2023-04-08T10:12:27.939Z,18.40
2023-04-08T10:15:24.070Z,18.73
2023-04-08T10:17:52.295Z,18.92
2023-04-08T10:20:42.904Z,19.25
2023-04-08T10:23:11.467Z,19.27
2023-04-08T10:25:41.380Z,19.37
2023-04-08T10:28:29.872Z,19.35
2023-04-08T10:30:58.690Z,19.35
2023-04-08T10:33:34.628Z,19.36
2023-04-08T10:36:11.314Z,19.55
2023-04-08T10:38:39.289Z,19.63
2023-04-08T10:41:07.172Z,19.54
2023-04-08T10:43:36.617Z,19.54
2023-04-08T10:46:05.014Z,19.86
2023-04-08T10:48:33.056Z,20.02
2023-04-08T10:51:02.023Z,19.85
2023-04-08T10:53:31.211Z,20.16
2023-04-08T10:56:07.114Z,20.41
2023-04-08T10:58:37.464Z,20.37
2023-04-08T11:01:07.435Z,20.57
2023-04-08T11:03:37.106Z,20.61
2023-04-08T11:06:05.834Z,20.56
2023-04-08T11:08:34.741Z,20.32
2023-04-08T11:11:02.857Z,20.86
2023-04-08T11:13:31.795Z,21.08
2023-04-08T11:16:02.638Z,21.10
2023-04-08T11:18:32.257Z,21.22
2023-04-08T11:21:00.557Z,21.61
2023-04-08T11:23:28.733Z,21.68
2023-04-08T11:25:57.092Z,21.62
2023-04-08T11:28:26.048Z,21.26
2023-04-08T11:30:55.256Z,21.00
2023-04-08T11:33:26.273Z,20.78
2023-04-08T11:35:54.080Z,20.40
2023-04-08T11:38:24.397Z,20.48
2023-04-08T11:40:55.444Z,20.56
2023-04-08T11:43:23.568Z,20.28
2023-04-08T11:45:51.628Z,20.20
2023-04-08T11:48:19.512Z,19.99
2023-04-08T11:50:50.739Z,20.22
2023-04-08T11:53:20.418Z,20.21
2023-04-08T11:55:48.890Z,20.54
2023-04-08T11:58:17.443Z,20.83
2023-04-08T12:00:45.629Z,20.77
2023-04-08T12:03:14.172Z,20.89
2023-04-08T12:05:42.534Z,21.02
2023-04-08T12:08:11.778Z,21.01
2023-04-08T12:10:39.630Z,21.06
2023-04-08T12:13:07.450Z,21.23
2023-04-08T12:15:35.265Z,21.43
2023-04-08T12:18:03.234Z,21.21
2023-04-08T12:20:31.092Z,21.41
2023-04-08T12:22:58.851Z,21.32
2023-04-08T12:25:29.118Z,21.33
2023-04-08T12:27:56.905Z,21.13
2023-04-08T12:30:24.735Z,21.07
2023-04-08T12:32:55.234Z,20.78
2023-04-08T12:35:23.156Z,20.49
2023-04-08T12:37:51.087Z,20.44
2023-04-08T12:40:19.220Z,20.27
2023-04-08T12:42:48.514Z,20.22
2023-04-08T12:45:16.282Z,20.26
2023-04-08T12:47:44.072Z,20.29
2023-04-08T12:50:11.919Z,20.08
2023-04-08T12:52:39.673Z,19.90
2023-04-08T12:55:08.412Z,19.69
2023-04-08T12:57:36.698Z,19.51
2023-04-08T13:00:07.040Z,19.35
2023-04-08T13:02:34.957Z,19.35
2023-04-08T13:05:02.899Z,19.11
2023-04-08T13:07:30.700Z,19.07
2023-04-08T13:09:58.477Z,19.21
2023-04-08T13:12:27.072Z,19.22
2023-04-08T13:14:55.217Z,19.26
2023-04-08T13:17:24.429Z,19.10
2023-04-08T13:19:52.493Z,19.11
2023-04-08T13:22:20.318Z,19.10
2023-04-08T13:24:48.077Z,19.00
2023-04-08T13:27:16.145Z,19.05
2023-04-08T13:29:44.028Z,19.31
2023-04-08T13:32:12.036Z,19.35
2023-04-08T13:34:42.469Z,19.60
2023-04-08T13:37:10.398Z,19.80
2023-04-08T13:39:38.145Z,19.75
2023-04-08T13:42:05.947Z,19.57
2023-04-08T13:44:34.063Z,19.46
2023-04-08T13:47:01.974Z,19.46
2023-04-08T13:49:29.781Z,19.43
2023-04-08T13:51:58.967Z,19.49
2023-04-08T13:54:27.292Z,19.40
2023-04-08T13:56:55.095Z,19.40
2023-04-08T13:59:22.872Z,19.32
2023-04-08T14:01:54.050Z,19.14
2023-04-08T14:04:22.602Z,18.99
2023-04-08T14:06:51.508Z,19.00
2023-04-08T14:09:20.928Z,18.89
2023-04-08T14:11:48.723Z,18.85
2023-04-08T14:14:16.806Z,18.72
2023-04-08T14:16:45.061Z,18.66
2023-04-08T14:19:13.248Z,18.64
2023-04-08T14:21:41.245Z,18.59
2023-04-08T14:24:09.108Z,18.66
2023-04-08T14:26:38.486Z,18.86
2023-04-08T14:29:07.365Z,18.95
2023-04-08T14:31:36.232Z,19.00
2023-04-08T14:34:04.518Z,18.78
2023-04-08T14:36:32.810Z,18.64
2023-04-08T14:39:00.814Z,18.68
2023-04-08T14:41:28.613Z,18.68
2023-04-08T14:43:57.779Z,18.66
2023-04-08T14:46:28.853Z,18.44
2023-04-08T14:48:57.079Z,18.30
2023-04-08T14:51:24.889Z,18.22
2023-04-08T14:53:52.665Z,18.22
2023-04-08T14:56:20.585Z,18.42
2023-04-08T14:58:48.360Z,18.45
2023-04-08T15:01:17.552Z,18.36
2023-04-08T15:03:45.396Z,18.39
2023-04-08T15:06:17.616Z,18.29
2023-04-08T15:08:45.738Z,18.40
2023-04-08T15:11:13.644Z,18.30
2023-04-08T15:13:41.597Z,18.49
2023-04-08T15:16:09.444Z,18.59
2023-04-08T15:18:38.651Z,18.41
2023-04-08T15:21:06.539Z,18.41
2023-04-08T15:23:34.342Z,18.39
2023-04-08T15:26:02.188Z,18.40
2023-04-08T15:28:30.269Z,18.43
2023-04-08T15:30:58.102Z,18.55
2023-04-08T15:33:26.121Z,18.43
2023-04-08T15:35:55.961Z,18.36
2023-04-08T15:38:23.939Z,18.25
2023-04-08T15:40:51.802Z,18.10
2023-04-08T15:43:19.575Z,17.87
2023-04-08T15:45:48.183Z,17.77
2023-04-08T15:48:15.971Z,17.62
2023-04-08T15:50:43.839Z,17.73
2023-04-08T15:53:13.064Z,17.75
2023-04-08T15:55:41.780Z,17.54
2023-04-08T15:58:09.650Z,17.62
2023-04-08T16:00:37.580Z,17.41
2023-04-08T16:03:08.349Z,17.41
2023-04-08T16:05:39.150Z,17.42
2023-04-08T16:08:07.605Z,17.37
2023-04-08T16:10:37.301Z,17.23
2023-04-08T16:13:05.059Z,17.04
2023-04-08T16:15:34.083Z,16.96
2023-04-08T16:18:03.022Z,16.84
2023-04-08T16:20:30.989Z,16.73
2023-04-08T16:22:58.808Z,16.86
2023-04-08T16:25:27.839Z,16.79
2023-04-08T16:27:57.490Z,16.70
2023-04-08T16:30:25.275Z,16.71
2023-04-08T16:32:53.132Z,16.71
2023-04-08T16:35:22.321Z,16.70
2023-04-08T16:37:50.169Z,16.59
2023-04-08T16:40:18.141Z,16.55
2023-04-08T16:42:46.071Z,16.44
2023-04-08T16:45:15.774Z,16.31
2023-04-08T16:47:44.450Z,16.22
2023-04-08T16:50:12.694Z,16.22
2023-04-08T16:52:40.447Z,16.12
2023-04-08T16:55:09.394Z,16.12
2023-04-08T16:57:37.286Z,15.98
2023-04-08T17:00:06.013Z,16.07
2023-04-08T17:02:35.391Z,15.93
2023-04-08T17:05:03.291Z,15.95
2023-04-08T17:07:31.830Z,15.90
2023-04-08T17:09:59.630Z,15.80
2023-04-08T17:12:27.740Z,15.81
2023-04-08T17:14:55.765Z,15.83
2023-04-08T17:17:23.638Z,15.89
2023-04-08T17:19:53.088Z,15.96
2023-04-08T17:22:21.458Z,15.92
2023-04-08T17:24:49.194Z,15.90
2023-04-08T17:27:16.958Z,15.88
2023-04-08T17:29:44.790Z,15.82
2023-04-08T17:32:13.636Z,15.71
2023-04-08T17:34:41.767Z,15.59
2023-04-08T17:37:11.177Z,15.58
2023-04-08T17:39:40.831Z,15.62
2023-04-08T17:42:09.077Z,15.51
2023-04-08T17:44:37.374Z,15.49
2023-04-08T17:47:05.193Z,15.33
2023-04-08T17:49:32.995Z,15.29
2023-04-08T17:52:00.849Z,15.21
2023-04-08T17:54:31.458Z,15.17
2023-04-08T17:56:59.246Z,15.01
2023-04-08T17:59:27.035Z,14.90
2023-04-08T18:01:54.997Z,14.87
2023-04-08T18:04:23.015Z,14.91
2023-04-08T18:06:50.826Z,14.69
2023-04-08T18:09:18.657Z,14.59
2023-04-08T18:11:47.781Z,14.58
2023-04-08T18:14:16.499Z,14.59
2023-04-08T18:16:44.433Z,14.55
2023-04-08T18:19:13.540Z,14.50
2023-04-08T18:21:41.367Z,14.48
2023-04-08T18:24:09.425Z,14.48
2023-04-08T18:26:37.301Z,14.51
2023-04-08T18:29:06.648Z,14.48
2023-04-08T18:31:34.613Z,14.42
2023-04-08T18:34:03.140Z,14.40
2023-04-08T18:36:31.625Z,14.34
2023-04-08T18:38:59.438Z,14.32
2023-04-08T18:41:28.940Z,14.38
2023-04-08T18:43:56.704Z,14.46
2023-04-08T18:46:25.980Z,14.40
2023-04-08T18:48:53.813Z,14.32
2023-04-08T18:51:21.613Z,14.16
2023-04-08T18:53:49.857Z,14.16
2023-04-08T18:56:18.359Z,14.13
2023-04-08T18:58:47.148Z,14.15
2023-04-08T19:01:16.164Z,14.21
2023-04-08T19:03:45.822Z,14.05
2023-04-08T19:06:14.531Z,14.03
2023-04-08T19:08:42.477Z,14.06
2023-04-08T19:11:10.320Z,14.07
2023-04-08T19:13:38.076Z,13.97
2023-04-08T19:16:06.488Z,14.03
2023-04-08T19:18:34.345Z,14.14
2023-04-08T19:21:03.563Z,14.08
2023-04-08T19:23:32.098Z,14.12
2023-04-08T19:25:59.854Z,14.00
2023-04-08T19:28:27.698Z,14.02
2023-04-08T19:30:55.519Z,14.01
2023-04-08T19:33:23.675Z,13.89
2023-04-08T19:35:51.520Z,13.84
2023-04-08T19:38:20.842Z,13.66
2023-04-08T19:40:48.881Z,13.60
2023-04-08T19:43:17.611Z,13.52
2023-04-08T19:45:45.459Z,13.46
2023-04-08T19:48:13.203Z,13.43
2023-04-08T19:50:41.386Z,13.35
2023-04-08T19:53:09.179Z,13.21
2023-04-08T19:55:38.367Z,13.20
2023-04-08T19:58:06.884Z,13.13
2023-04-08T20:00:37.235Z,13.04
2023-04-08T20:03:05.869Z,12.95
2023-04-08T20:05:33.963Z,12.91
2023-04-08T20:08:02.227Z,12.82
2023-04-08T20:10:31.645Z,12.67
2023-04-08T20:13:00.806Z,12.65
2023-04-08T20:15:28.648Z,12.62
2023-04-08T20:17:56.520Z,12.54
2023-04-08T20:20:26.694Z,12.50
2023-04-08T20:22:55.476Z,12.44
2023-04-08T20:25:23.728Z,12.31
2023-04-08T20:27:52.198Z,12.28
2023-04-08T20:30:21.420Z,12.32
2023-04-08T20:32:49.277Z,12.34
2023-04-08T20:35:17.441Z,12.31
2023-04-08T20:37:46.177Z,12.32
2023-04-08T20:40:15.867Z,12.29
2023-04-08T20:42:45.530Z,12.24
2023-04-08T20:45:13.396Z,12.17
2023-04-08T20:47:44.531Z,12.06
2023-04-08T20:50:13.215Z,12.15
2023-04-08T20:52:41.124Z,12.10
2023-04-08T20:55:09.906Z,12.01
2023-04-08T20:57:37.699Z,11.98
2023-04-08T21:00:06.566Z,11.99
2023-04-08T21:02:34.555Z,11.97
2023-04-08T21:05:04.106Z,11.86
2023-04-08T21:07:31.897Z,11.85
2023-04-08T21:09:59.967Z,11.75
2023-04-08T21:12:27.772Z,11.68
2023-04-08T21:14:55.594Z,11.57
2023-04-08T21:17:23.423Z,11.37
2023-04-08T21:19:51.958Z,11.33
2023-04-08T21:22:21.104Z,11.43
2023-04-08T21:24:48.874Z,11.42
2023-04-08T21:27:16.646Z,11.36
2023-04-08T21:29:44.456Z,11.42
2023-04-08T21:32:12.478Z,11.39
2023-04-08T21:34:40.992Z,11.20
2023-04-08T21:37:08.791Z,11.12
2023-04-08T21:39:37.992Z,11.06
2023-04-08T21:42:05.947Z,10.97
2023-04-08T21:44:33.757Z,10.96
2023-04-08T21:47:02.140Z,10.92
2023-04-08T21:49:30.712Z,10.96
2023-04-08T21:51:58.898Z,10.98
2023-04-08T21:54:26.710Z,10.92
2023-04-08T21:56:56.621Z,10.82
2023-04-08T21:59:24.409Z,10.58
2023-04-08T22:01:52.306Z,10.60
2023-04-08T22:04:20.507Z,10.67
2023-04-08T22:06:49.353Z,10.71
2023-04-08T22:09:17.286Z,10.64
2023-04-08T22:11:45.080Z,10.56
2023-04-08T22:14:15.391Z,10.55
2023-04-08T22:16:43.280Z,10.46
2023-04-08T22:19:11.175Z,10.50
2023-04-08T22:21:38.947Z,10.59
2023-04-08T22:24:07.050Z,10.53
2023-04-08T22:26:34.820Z,10.56
2023-04-08T22:29:02.727Z,10.51
2023-04-08T22:31:31.840Z,10.51
2023-04-08T22:33:59.592Z,10.49
2023-04-08T22:36:27.453Z,10.38
2023-04-08T22:38:55.445Z,10.36
2023-04-08T22:41:24.578Z,10.37
2023-04-08T22:43:52.409Z,10.32
2023-04-08T22:46:20.381Z,10.29
2023-04-08T22:48:50.174Z,10.28
2023-04-08T22:51:18.090Z,10.21
2023-04-08T22:53:46.060Z,10.18
2023-04-08T22:56:13.827Z,10.13
2023-04-08T22:58:41.633Z,10.15
2023-04-08T23:01:13.538Z,10.15
2023-04-08T23:03:41.641Z,10.14
2023-04-08T23:06:11.471Z,10.19
2023-04-08T23:08:39.753Z,10.23
2023-04-08T23:11:07.980Z,10.21
2023-04-08T23:13:35.998Z,10.21
2023-04-08T23:16:03.906Z,10.19
2023-04-08T23:18:31.743Z,10.15
2023-04-08T23:20:59.540Z,10.17
2023-04-08T23:23:28.865Z,10.13
2023-04-08T23:25:56.720Z,10.13
2023-04-08T23:28:24.862Z,10.15
2023-04-08T23:30:52.655Z,10.11
2023-04-08T23:33:20.549Z,10.12
2023-04-08T23:35:48.383Z,10.14
2023-04-08T23:38:16.204Z,10.14
2023-04-08T23:40:45.342Z,10.20
2023-04-08T23:43:13.111Z,10.20
2023-04-08T23:45:40.896Z,10.23
2023-04-08T23:48:10.155Z,10.23
2023-04-08T23:50:38.122Z,10.19
2023-04-08T23:53:05.949Z,10.21
2023-04-08T23:55:33.718Z,10.20
2023-04-08T23:58:02.872Z,10.18
